11:21
Airports
History
Links
Donate
Help keep this website running!
PayPal
Bitcoin
This page is community maintained. The information is intended for PC simulator navigation or reference.
Always use approved charts for navigation.
72MN
Bardwell Airstrip
Bardwell Airstrip (72MN)
Leonard, Minnesota, United States (56652)
4
Lat/Lng:47° 45' 8.84" N / 95° 20' 6.03" W
47.752456 / -95.335008
Elevation:1260'ft / 384mMSL
ID / ICAO:72MN
Runways:1
Longest:11-29
Grass 982m / 3,221ft
Nearby Weather11:14 GMT 2017-10-18
Nearby weather at KFSE, Fosston Muni located 23.2 nautical miles from 72MN
Altimeter: 29.64
Visibility: 10.0 statute miles
Wind: 10 knots (from 230°)
Temp: 12°c / 54°f
Humidity: 54.0%

METAR: KFSE 181114Z AUTO 23010KT 10SM CLR 12/03 A2964 RMK AO2

(Powered by phpweather)
Nearby VORs <50NM
Nearby NDBs
Runway 11 / 29
Dimensions:981.7 x 24.4m 3221' x 80'ft
Surface:Grass
Runway 11 [A]Runway 29 [B]
Heading:114°TH 294°TH
Lat:
Lng:
47° 45' 15.52"N
95° 20' 27.32"W
47° 45' 2.16"N
95° 19' 44.73"W
User Notes and Comments
47° 45' 8.84" N / 95° 20' 6.03" W
Distance To
Airport ID:
Nearby Airports
(R) Mathis 11.8 NM
MY42 NW 310°
(U) Bagley Muni 15.8 NM
7Y4 S 184°
(U) Fosston Muni 23.2 NM
KFSE ( WX ) WSW 241°
(R) Hoiland Field 24.7 NM
5MN2 S 183°
(U) Bemidji Rgnl 25.0 NM
KBJI ( WX ) SE 131°
(R) Moberg Air Base 25.1 NM
MN13 SE 134°
4 Bachand 26.2 NM
MN84 W 279°
VFR Chart
Flight Planning at SkyVector.com